LFOH 301030Z AUTO 33008KT 310V010 CAVOK 20/11 Q1021

ElémentsDécodage
LFOH Station météo située sur l'aérodrome de LE-HAVRE Octeville
301030Z émis le 30 du mois à 10h30 UTC
AUTO Bulletin édité par un automate
33008KT vent du 330°, 08 noeuds
310V010 vent de direction variable entre 310° et 010°
CAVOK Ceiling And Visibility OK
- Visibilité de 10 Km ou plus
- Pas de nuage au-dessous de 1500m ou au-dessous de l'altitude minimale du secteur la plus élevée (si>1500m) et absence de CB
- pas de temps présent significatif
20/11 température 20°C, point de rosée 11°C
 soit une humidité relative de 56%
Q1021 la pression au niveau de la mer (QNH) est de 1021 hPa